GMI weather

Goomeri Oval Helicopter Landing Site
Goomeri, Queensland, Australia

Public forecast

Using degrees Celsius for public forecast. Weather courtesy of forecast.io.

METAR (pilot weather report)

Closest report is Kingaroy Airport, 27.0 nm (49.9 km) SSW. Retrieved 2019/02/16 23:00 UTC (1 hour ago):

YKRY 162300Z AUTO 13010KT 9999 // NCD 24/13 Q1016

TAF (pilot weather forecast)

Forecast is more than 12 hours old.

Closest forecast is Brisbane International Airport, 91.7 nm (169.8 km) SE. Retrieved 2019/02/16 00:00 UTC (1 day ago):

TAF YBBN 162310Z 1700/1806 13011KT 9999 FEW040 FM170100 11013KT 9999 SCT045 FM170900 13010KT 9999 SCT040 FM171200 19007KT 9999 SCT035 FM172300 15010KT 9999 FEW040 FM180100 11012KT 9999 FEW045